createdAt,value
2023-05-24T00:00:43.249Z,6.80
2023-05-24T00:03:30.988Z,7.90
2023-05-24T00:06:17.053Z,9.18
2023-05-24T00:09:02.327Z,7.60
2023-05-24T00:11:47.297Z,8.88
2023-05-24T00:14:32.248Z,8.95
2023-05-24T00:17:17.313Z,6.45
2023-05-24T00:20:02.662Z,12.75
2023-05-24T00:22:48.582Z,11.15
2023-05-24T00:25:33.450Z,8.43
2023-05-24T00:28:18.648Z,9.45
2023-05-24T00:31:03.992Z,11.75
2023-05-24T00:33:49.210Z,9.35
2023-05-24T00:36:34.520Z,8.57
2023-05-24T00:39:19.763Z,7.28
2023-05-24T00:42:05.182Z,7.38
2023-05-24T00:44:50.261Z,7.10
2023-05-24T00:47:35.993Z,7.72
2023-05-24T00:50:22.311Z,12.60
2023-05-24T00:53:09.498Z,8.32
2023-05-24T00:55:55.268Z,7.38
2023-05-24T00:58:40.544Z,6.03
2023-05-24T01:01:26.148Z,11.15
2023-05-24T01:04:12.460Z,8.52
2023-05-24T01:07:05.626Z,11.35
2023-05-24T01:10:02.172Z,6.20
2023-05-24T01:13:08.380Z,6.07
2023-05-24T01:16:07.876Z,5.57
2023-05-24T01:18:56.779Z,8.35
2023-05-24T01:22:13.654Z,9.50
2023-05-24T01:25:29.131Z,6.38
2023-05-24T01:28:17.544Z,8.32
2023-05-24T01:31:03.997Z,11.27
2023-05-24T01:33:49.488Z,9.65
2023-05-24T01:36:34.477Z,9.32
2023-05-24T01:39:20.809Z,11.23
2023-05-24T01:42:32.788Z,6.13
2023-05-24T01:45:26.634Z,8.50
2023-05-24T01:48:33.475Z,6.40
2023-05-24T01:51:22.435Z,7.45
2023-05-24T01:54:08.161Z,7.57
2023-05-24T01:56:55.106Z,6.50
2023-05-24T01:59:43.349Z,6.60
2023-05-24T02:02:29.050Z,6.68
2023-05-24T02:05:14.141Z,7.68
2023-05-24T02:07:59.199Z,9.55
2023-05-24T02:10:44.488Z,6.80
2023-05-24T02:13:29.620Z,8.05
2023-05-24T02:16:15.009Z,11.05
2023-05-24T02:18:59.949Z,8.77
2023-05-24T02:21:45.200Z,7.18
2023-05-24T02:24:30.077Z,8.90
2023-05-24T02:27:15.290Z,5.70
2023-05-24T02:30:00.351Z,8.00
2023-05-24T02:32:45.264Z,5.88
2023-05-24T02:35:30.287Z,12.00
2023-05-24T02:38:15.424Z,8.45
2023-05-24T02:41:00.641Z,9.35
2023-05-24T02:43:46.944Z,6.22
2023-05-24T02:46:32.134Z,8.55
2023-05-24T02:49:17.426Z,7.20
2023-05-24T02:52:02.400Z,9.65
2023-05-24T02:54:47.762Z,8.90
2023-05-24T02:57:34.151Z,11.90
2023-05-24T03:00:20.014Z,10.25
2023-05-24T03:03:04.982Z,9.00
2023-05-24T03:05:50.274Z,6.70
2023-05-24T03:08:37.365Z,10.55
2023-05-24T03:11:23.931Z,7.97
2023-05-24T03:14:10.948Z,5.80
2023-05-24T03:16:56.074Z,10.45
2023-05-24T03:19:42.051Z,6.28
2023-05-24T03:22:27.347Z,9.60
2023-05-24T03:25:12.532Z,6.07
2023-05-24T03:27:57.614Z,6.43
2023-05-24T03:30:42.631Z,5.90
2023-05-24T03:33:27.912Z,7.45
2023-05-24T03:36:13.042Z,7.57
2023-05-24T03:38:59.062Z,6.22
2023-05-24T03:41:44.280Z,8.32
2023-05-24T03:44:29.458Z,8.32
2023-05-24T03:47:14.811Z,8.23
2023-05-24T03:49:59.946Z,7.88
2023-05-24T03:52:44.865Z,9.95
2023-05-24T03:55:29.923Z,5.47
2023-05-24T03:58:14.833Z,5.57
2023-05-24T04:01:01.022Z,12.18
2023-05-24T04:03:47.284Z,7.38
2023-05-24T04:06:32.625Z,9.30
2023-05-24T04:09:17.690Z,7.32
2023-05-24T04:12:02.527Z,6.13
2023-05-24T04:14:47.546Z,5.18
2023-05-24T04:17:35.047Z,7.07
2023-05-24T04:20:22.679Z,5.20
2023-05-24T04:23:07.692Z,6.57
2023-05-24T04:25:52.551Z,5.80
2023-05-24T04:28:41.081Z,7.30
2023-05-24T04:31:29.470Z,5.27
2023-05-24T04:34:14.862Z,9.95
2023-05-24T04:37:00.544Z,8.15
2023-05-24T04:39:45.884Z,5.43
2023-05-24T04:42:31.809Z,7.18
2023-05-24T04:45:17.038Z,4.85
2023-05-24T04:48:02.223Z,5.47
2023-05-24T04:50:47.939Z,8.35
2023-05-24T04:53:33.183Z,5.05
2023-05-24T04:56:19.661Z,5.60
2023-05-24T04:59:06.222Z,4.47
2023-05-24T05:01:51.547Z,9.65
2023-05-24T05:04:36.848Z,5.68
2023-05-24T05:07:22.402Z,8.77
2023-05-24T05:10:08.251Z,8.25
2023-05-24T05:12:53.778Z,7.85
2023-05-24T05:15:40.490Z,9.43
2023-05-24T05:18:26.861Z,4.35
2023-05-24T05:21:11.976Z,6.80
2023-05-24T05:23:57.189Z,7.93
2023-05-24T05:26:42.620Z,6.40
2023-05-24T05:29:27.564Z,8.93
2023-05-24T05:32:12.700Z,10.25
2023-05-24T05:34:57.821Z,9.77
2023-05-24T05:37:42.723Z,6.18
2023-05-24T05:40:27.692Z,8.32
2023-05-24T05:43:12.646Z,10.43
2023-05-24T05:45:57.903Z,8.55
2023-05-24T05:48:45.034Z,8.70
2023-05-24T05:51:31.980Z,13.27
2023-05-24T05:54:18.397Z,11.13
2023-05-24T05:57:03.529Z,8.63
2023-05-24T05:59:48.749Z,7.75
2023-05-24T06:02:33.853Z,11.63
2023-05-24T06:05:19.448Z,13.15
2023-05-24T06:08:04.849Z,11.35
2023-05-24T06:10:51.996Z,14.05
2023-05-24T06:13:37.745Z,12.90
2023-05-24T06:16:25.959Z,11.70
2023-05-24T06:19:11.049Z,13.10
2023-05-24T06:21:56.073Z,13.95
2023-05-24T06:24:41.316Z,16.98
2023-05-24T06:27:26.496Z,18.33
2023-05-24T06:30:12.926Z,15.25
2023-05-24T06:32:57.877Z,14.05
2023-05-24T06:35:43.396Z,11.35
2023-05-24T06:38:28.595Z,22.70
2023-05-24T06:41:13.785Z,15.82
2023-05-24T06:43:59.546Z,15.02
2023-05-24T06:46:44.630Z,13.75
2023-05-24T06:49:30.287Z,16.45
2023-05-24T06:52:15.592Z,17.08
2023-05-24T06:55:01.360Z,20.90
2023-05-24T06:57:46.635Z,13.43
2023-05-24T07:00:32.147Z,19.23
2023-05-24T07:03:17.288Z,14.20
2023-05-24T07:06:02.255Z,24.23
2023-05-24T07:08:47.302Z,16.80
2023-05-24T07:11:32.462Z,20.10
2023-05-24T07:14:17.599Z,17.10
2023-05-24T07:17:02.714Z,17.15
2023-05-24T07:19:47.842Z,17.50
2023-05-24T07:22:32.874Z,19.30
2023-05-24T07:25:17.811Z,12.10
2023-05-24T07:28:03.254Z,14.65
2023-05-24T07:30:48.885Z,19.10
2023-05-24T07:33:36.682Z,14.52
2023-05-24T07:36:21.913Z,18.38
2023-05-24T07:39:09.887Z,19.35
2023-05-24T07:41:55.152Z,19.60
2023-05-24T07:44:40.664Z,18.33
2023-05-24T07:47:26.212Z,23.17
2023-05-24T07:50:11.907Z,17.55
2023-05-24T07:52:57.162Z,17.80
2023-05-24T07:55:42.691Z,15.25
2023-05-24T07:58:28.278Z,15.07
2023-05-24T08:01:14.413Z,12.50
2023-05-24T08:03:59.527Z,14.82
2023-05-24T08:06:46.821Z,17.95
2023-05-24T08:09:36.447Z,21.40
2023-05-24T08:12:21.716Z,19.75
2023-05-24T08:15:07.330Z,17.25
2023-05-24T08:17:52.469Z,15.82
2023-05-24T08:20:38.935Z,20.60
2023-05-24T08:23:24.295Z,14.23
2023-05-24T08:26:09.310Z,15.48
2023-05-24T08:28:54.849Z,18.77
2023-05-24T08:31:39.976Z,18.92
2023-05-24T08:34:25.662Z,17.38
2023-05-24T08:37:12.210Z,16.17
2023-05-24T08:39:59.170Z,16.98
2023-05-24T08:42:46.061Z,13.60
2023-05-24T08:45:32.723Z,12.88
2023-05-24T08:48:19.247Z,12.52
2023-05-24T08:51:05.094Z,21.73
2023-05-24T08:53:50.924Z,19.55
2023-05-24T08:56:37.511Z,16.17
2023-05-24T08:59:25.105Z,13.65
2023-05-24T09:02:14.985Z,13.85
2023-05-24T09:07:46.226Z,14.95
2023-05-24T09:10:45.186Z,16.52
2023-05-24T09:13:39.468Z,18.45
2023-05-24T09:16:24.911Z,16.98
2023-05-24T09:19:10.105Z,17.33
2023-05-24T09:21:56.802Z,23.00
2023-05-24T09:24:43.205Z,16.52
2023-05-24T09:27:28.498Z,18.00
2023-05-24T09:30:15.527Z,14.25
2023-05-24T09:33:01.937Z,13.18
2023-05-24T09:35:49.101Z,12.73
2023-05-24T09:38:36.074Z,12.52
2023-05-24T09:41:24.303Z,11.05
2023-05-24T09:44:14.735Z,14.40
2023-05-24T09:47:06.653Z,11.02
2023-05-24T09:49:52.324Z,14.38
2023-05-24T09:52:38.248Z,15.43
2023-05-24T09:55:24.091Z,12.63
2023-05-24T09:58:09.678Z,13.45
2023-05-24T10:01:05.111Z,11.75
2023-05-24T10:03:59.292Z,17.85
2023-05-24T10:06:44.479Z,14.77
2023-05-24T10:09:34.069Z,13.95
2023-05-24T10:12:23.136Z,15.48
2023-05-24T10:15:10.770Z,16.80
2023-05-24T10:17:57.117Z,14.23
2023-05-24T10:20:43.052Z,13.80
2023-05-24T10:23:30.938Z,14.35
2023-05-24T10:26:16.417Z,15.05
2023-05-24T10:29:08.114Z,15.25
2023-05-24T10:31:53.918Z,11.10
2023-05-24T10:34:39.799Z,15.15
2023-05-24T10:37:26.396Z,9.18
2023-05-24T10:40:25.166Z,10.38
2023-05-24T10:43:10.676Z,11.02
2023-05-24T10:45:56.551Z,10.23
2023-05-24T10:48:42.319Z,9.50
2023-05-24T10:51:40.681Z,10.02
2023-05-24T10:54:27.234Z,11.73
2023-05-24T10:57:12.311Z,14.07
2023-05-24T10:59:58.432Z,15.23
2023-05-24T11:02:43.663Z,13.77
2023-05-24T11:05:47.990Z,15.20
2023-05-24T11:08:37.935Z,11.43
2023-05-24T11:11:30.314Z,13.93
2023-05-24T11:14:25.104Z,14.65
2023-05-24T11:17:10.657Z,8.43
2023-05-24T11:19:56.544Z,11.25
2023-05-24T11:22:42.160Z,11.35
2023-05-24T11:25:27.565Z,9.13
2023-05-24T11:28:13.236Z,10.98
2023-05-24T11:31:09.419Z,9.32
2023-05-24T11:33:54.595Z,7.78
2023-05-24T11:36:41.061Z,13.52
2023-05-24T11:39:37.567Z,12.65
2023-05-24T11:42:23.578Z,11.70
2023-05-24T11:45:10.392Z,8.80
2023-05-24T11:47:56.182Z,12.40
2023-05-24T11:53:32.175Z,10.77
2023-05-24T11:56:17.201Z,12.70
2023-05-24T11:59:16.108Z,16.02
2023-05-24T12:02:03.608Z,11.87
2023-05-24T12:04:48.939Z,8.93
2023-05-24T12:07:34.314Z,9.13
2023-05-24T12:10:20.914Z,17.05
2023-05-24T12:13:22.460Z,10.00
2023-05-24T12:16:08.086Z,8.77
2023-05-24T12:19:05.188Z,13.70
2023-05-24T12:21:59.216Z,13.18
2023-05-24T12:24:44.477Z,10.77
2023-05-24T12:27:31.441Z,11.55
2023-05-24T12:30:21.261Z,11.00
2023-05-24T12:33:06.953Z,9.60
2023-05-24T12:35:53.400Z,9.27
2023-05-24T12:38:38.660Z,8.57
2023-05-24T12:41:23.586Z,9.98
2023-05-24T12:44:10.508Z,13.45
2023-05-24T12:46:57.251Z,30.38
2023-05-24T12:49:43.352Z,12.18
2023-05-24T12:52:28.465Z,12.07
2023-05-24T12:55:16.963Z,16.42
2023-05-24T12:58:03.372Z,9.90
2023-05-24T13:00:50.343Z,9.98
2023-05-24T13:03:35.737Z,8.50
2023-05-24T13:06:20.878Z,10.70
2023-05-24T13:09:06.455Z,8.63
2023-05-24T13:11:52.437Z,10.82
2023-05-24T13:14:37.870Z,10.57
2023-05-24T13:17:23.016Z,12.10
2023-05-24T13:20:11.112Z,11.57
2023-05-24T13:22:56.560Z,13.32
2023-05-24T13:25:41.558Z,9.05
2023-05-24T13:28:27.976Z,12.13
2023-05-24T13:31:14.505Z,8.88
2023-05-24T13:34:00.145Z,9.88
2023-05-24T13:36:45.919Z,13.75
2023-05-24T13:39:30.838Z,9.40
2023-05-24T13:42:16.510Z,8.02
2023-05-24T13:45:03.466Z,9.75
2023-05-24T13:47:48.676Z,9.07
2023-05-24T13:50:35.757Z,11.23
2023-05-24T13:53:22.555Z,10.32
2023-05-24T13:56:07.417Z,11.30
2023-05-24T13:58:53.401Z,13.15
2023-05-24T14:01:39.142Z,9.27
2023-05-24T14:04:24.599Z,7.75
2023-05-24T14:07:13.463Z,7.72
2023-05-24T14:09:58.637Z,11.95
2023-05-24T14:12:43.680Z,10.48
2023-05-24T14:15:30.014Z,7.28
2023-05-24T14:18:15.266Z,9.65
2023-05-24T14:21:00.906Z,9.02
2023-05-24T14:23:45.721Z,14.20
2023-05-24T14:26:32.194Z,10.68
2023-05-24T14:29:17.421Z,11.80
2023-05-24T14:32:02.410Z,8.27
2023-05-24T14:34:47.805Z,10.50
2023-05-24T14:37:32.705Z,8.75
2023-05-24T14:40:19.959Z,9.10
2023-05-24T14:43:07.167Z,10.63
2023-05-24T14:45:52.340Z,8.32
2023-05-24T14:48:37.513Z,9.45
2023-05-24T14:51:23.089Z,8.02
2023-05-24T14:54:11.223Z,9.75
2023-05-24T14:56:56.688Z,7.28
2023-05-24T14:59:41.550Z,10.43
2023-05-24T15:02:26.954Z,11.63
2023-05-24T15:05:11.967Z,9.07
2023-05-24T15:07:57.251Z,13.30
2023-05-24T15:10:45.304Z,12.63
2023-05-24T15:13:31.300Z,7.93
2023-05-24T15:16:18.332Z,11.63
2023-05-24T15:19:04.549Z,13.00
2023-05-24T15:21:49.723Z,11.52
2023-05-24T15:24:37.796Z,11.23
2023-05-24T15:27:23.127Z,8.73
2023-05-24T15:30:08.326Z,12.60
2023-05-24T15:32:53.950Z,8.93
2023-05-24T15:35:39.188Z,9.25
2023-05-24T15:38:24.844Z,6.18
2023-05-24T15:41:10.350Z,12.73
2023-05-24T15:43:55.617Z,10.98
2023-05-24T15:46:41.152Z,8.13
2023-05-24T15:49:26.300Z,8.68
2023-05-24T15:52:11.476Z,11.88
2023-05-24T15:54:56.591Z,9.80
2023-05-24T15:57:41.727Z,9.70
2023-05-24T16:00:27.076Z,8.35
2023-05-24T16:03:15.449Z,4.72
2023-05-24T16:06:00.954Z,10.18
2023-05-24T16:08:46.201Z,6.72
2023-05-24T16:11:31.390Z,10.85
2023-05-24T16:14:16.928Z,9.60
2023-05-24T16:17:06.201Z,13.07
2023-05-24T16:19:51.145Z,7.78
2023-05-24T16:22:36.780Z,7.35
2023-05-24T16:25:21.942Z,9.15
2023-05-24T16:28:07.133Z,10.13
2023-05-24T16:30:55.521Z,9.30
2023-05-24T16:33:40.709Z,10.80
2023-05-24T16:36:27.047Z,8.30
2023-05-24T16:39:12.172Z,7.35
2023-05-24T16:41:58.209Z,10.85
2023-05-24T16:44:44.772Z,10.52
2023-05-24T16:47:30.138Z,14.05
2023-05-24T16:50:15.640Z,17.80
2023-05-24T16:53:00.876Z,10.98
2023-05-24T16:55:45.948Z,7.35
2023-05-24T16:58:31.528Z,10.80
2023-05-24T17:01:16.554Z,12.63
2023-05-24T17:04:01.870Z,13.82
2023-05-24T17:06:47.385Z,11.77
2023-05-24T17:09:32.595Z,11.20
2023-05-24T17:12:18.279Z,9.70
2023-05-24T17:15:05.184Z,7.25
2023-05-24T17:17:51.751Z,9.68
2023-05-24T17:20:36.744Z,9.35
2023-05-24T17:23:21.853Z,8.50
2023-05-24T17:26:11.148Z,11.55
2023-05-24T17:28:56.389Z,9.30
2023-05-24T17:31:41.663Z,8.02
2023-05-24T17:34:27.140Z,7.75
2023-05-24T17:37:12.429Z,9.13
2023-05-24T17:39:57.710Z,9.60
2023-05-24T17:42:43.199Z,8.45
2023-05-24T17:45:28.570Z,8.65
2023-05-24T17:48:13.765Z,7.78
2023-05-24T17:51:01.125Z,10.88
2023-05-24T17:53:46.992Z,9.15
2023-05-24T17:56:32.044Z,8.88
2023-05-24T17:59:17.646Z,8.70
2023-05-24T18:02:02.798Z,10.13
2023-05-24T18:04:47.701Z,12.15
2023-05-24T18:07:33.372Z,12.85
2023-05-24T18:10:19.240Z,10.30
2023-05-24T18:13:07.751Z,15.15
2023-05-24T18:15:53.058Z,12.38
2023-05-24T18:18:38.578Z,9.13
2023-05-24T18:21:23.949Z,11.88
2023-05-24T18:24:09.092Z,8.88
2023-05-24T18:26:53.980Z,11.57
2023-05-24T18:29:39.186Z,12.07
2023-05-24T18:32:24.614Z,12.75
2023-05-24T18:35:12.095Z,12.25
2023-05-24T18:37:57.593Z,9.80
2023-05-24T18:40:42.881Z,14.55
2023-05-24T18:43:27.844Z,13.18
2023-05-24T18:46:14.618Z,14.95
2023-05-24T18:49:01.768Z,12.18
2023-05-24T18:51:46.960Z,13.10
2023-05-24T18:54:31.843Z,12.23
2023-05-24T18:57:17.205Z,15.23
2023-05-24T19:00:02.057Z,11.27
2023-05-24T19:02:47.053Z,18.63
2023-05-24T19:05:32.336Z,16.17
2023-05-24T19:08:17.991Z,9.93
2023-05-24T19:11:03.249Z,11.95
2023-05-24T19:13:48.415Z,14.20
2023-05-24T19:16:33.353Z,15.45
2023-05-24T19:19:18.272Z,15.93
2023-05-24T19:22:03.422Z,17.25
2023-05-24T19:24:48.498Z,12.82
2023-05-24T19:27:34.960Z,8.95
2023-05-24T19:30:21.702Z,11.23
2023-05-24T19:33:07.400Z,12.23
2023-05-24T19:35:52.665Z,18.85
2023-05-24T19:38:37.852Z,14.93
2023-05-24T19:41:22.938Z,15.80
2023-05-24T19:44:08.397Z,18.15
2023-05-24T19:46:53.569Z,15.77
2023-05-24T19:49:38.400Z,15.73
2023-05-24T19:52:23.310Z,16.52
2023-05-24T19:55:09.539Z,16.85
2023-05-24T19:57:54.670Z,17.95
2023-05-24T20:00:39.475Z,18.20
2023-05-24T20:03:25.085Z,18.42
2023-05-24T20:06:10.084Z,18.00
2023-05-24T20:08:57.720Z,18.35
2023-05-24T20:11:42.850Z,17.08
2023-05-24T20:14:31.263Z,18.02
2023-05-24T20:17:16.854Z,18.83
2023-05-24T20:20:02.492Z,13.88
2023-05-24T20:22:47.783Z,18.40
2023-05-24T20:25:33.191Z,22.33
2023-05-24T20:28:29.553Z,22.13
2023-05-24T20:31:17.123Z,21.02
2023-05-24T20:34:02.297Z,20.55
2023-05-24T20:36:47.711Z,11.82
2023-05-24T20:39:33.320Z,17.88
2023-05-24T20:42:18.416Z,19.50
2023-05-24T20:45:04.139Z,15.85
2023-05-24T20:47:49.024Z,18.20
2023-05-24T20:50:34.004Z,9.90
2023-05-24T20:53:19.028Z,14.50
2023-05-24T20:56:04.497Z,11.32
2023-05-24T20:58:54.104Z,20.73
2023-05-24T21:01:39.032Z,12.57
2023-05-24T21:04:24.361Z,14.93
2023-05-24T21:07:09.255Z,11.70
2023-05-24T21:09:54.231Z,15.15
2023-05-24T21:12:39.483Z,13.30
2023-05-24T21:15:24.950Z,12.65
2023-05-24T21:18:10.291Z,14.95
2023-05-24T21:20:55.114Z,14.38
2023-05-24T21:23:40.059Z,13.07
2023-05-24T21:26:26.507Z,13.13
2023-05-24T21:29:13.167Z,17.08
2023-05-24T21:31:58.418Z,26.02
2023-05-24T21:34:43.835Z,16.38
2023-05-24T21:37:28.752Z,13.68
2023-05-24T21:40:13.839Z,13.63
2023-05-24T21:42:58.742Z,19.30
2023-05-24T21:45:43.883Z,13.43
2023-05-24T21:48:29.047Z,17.80
2023-05-24T21:51:15.514Z,15.85
2023-05-24T21:54:00.887Z,19.65
2023-05-24T21:56:46.775Z,16.95
2023-05-24T21:59:31.737Z,24.83
2023-05-24T22:02:16.681Z,20.75
2023-05-24T22:05:01.716Z,22.65
2023-05-24T22:07:46.623Z,23.95
2023-05-24T22:10:31.461Z,20.48
2023-05-24T22:13:16.407Z,20.75
2023-05-24T22:16:02.012Z,29.35
2023-05-24T22:18:48.000Z,24.40
2023-05-24T22:21:33.581Z,22.23
2023-05-24T22:24:18.528Z,20.40
2023-05-24T22:27:04.333Z,24.80
2023-05-24T22:29:49.641Z,22.25
2023-05-24T22:32:34.729Z,23.10
2023-05-24T22:35:19.631Z,25.80
2023-05-24T22:38:04.742Z,29.05
2023-05-24T22:40:57.466Z,27.60
2023-05-24T22:43:42.391Z,28.30
2023-05-24T22:46:27.530Z,33.33
2023-05-24T22:49:13.371Z,30.42
2023-05-24T22:51:58.729Z,30.02
2023-05-24T22:54:43.831Z,27.05
2023-05-24T22:57:29.240Z,28.48
2023-05-24T23:00:15.436Z,24.30
2023-05-24T23:03:00.814Z,28.33
2023-05-24T23:05:46.115Z,28.45
2023-05-24T23:08:32.203Z,33.17
2023-05-24T23:11:17.890Z,31.52
2023-05-24T23:14:03.003Z,27.88
2023-05-24T23:16:47.817Z,28.80
2023-05-24T23:19:33.130Z,24.20
2023-05-24T23:22:23.696Z,30.58
2023-05-24T23:25:09.945Z,28.75
2023-05-24T23:27:55.155Z,28.83
2023-05-24T23:30:40.353Z,27.60
2023-05-24T23:33:25.566Z,26.63
2023-05-24T23:36:10.919Z,24.88
2023-05-24T23:38:56.098Z,30.63
2023-05-24T23:41:41.050Z,30.52
2023-05-24T23:44:26.335Z,29.80
2023-05-24T23:47:11.491Z,25.40
2023-05-24T23:49:56.698Z,26.25
2023-05-24T23:52:41.805Z,30.45
2023-05-24T23:55:27.040Z,27.77
2023-05-24T23:58:12.167Z,24.52
